Time;durP1;ratioP1;P1;durP2;ratioP2;P2;SDS_P1;SDS_P2;PMS_P1;PMS_P2;Temp;Humidity;BMP_temperature;BMP_pressure;BME280_temperature;BME280_humidity;BME280_pressure;Samples;Min_cycle;Max_cycle;Signal;HPM_P1;HPM_P2
2023/11/20 00:01:42;;;;;;;16.02;4.05;;;;;;;9.91;nan;99417.97;5005971;27;97039;-77
2023/11/20 00:04:08;;;;;;;15.52;5.03;;;;;;;9.91;nan;99430.22;5042093;27;98106;-77
2023/11/20 00:06:34;;;;;;;19.83;4.85;;;;;;;9.97;nan;99424.69;5024612;27;97594;-78
2023/11/20 00:08:59;;;;;;;13.70;4.80;;;;;;;9.89;nan;99411.97;5028790;27;97155;-78
2023/11/20 00:11:27;;;;;;;14.07;3.97;;;;;;;10.01;nan;99425.44;5015650;27;97899;-77
2023/11/20 00:13:52;;;;;;;13.38;3.45;;;;;;;10.08;nan;99432.94;5018405;27;97351;-77
2023/11/20 00:16:18;;;;;;;17.58;4.68;;;;;;;10.04;nan;99435.78;5006872;27;97477;-79
2023/11/20 00:18:43;;;;;;;16.25;3.90;;;;;;;10.12;nan;99438.88;4998744;27;96735;-77
2023/11/20 00:21:09;;;;;;;14.52;4.28;;;;;;;10.05;nan;99432.22;5042225;27;97003;-79
2023/11/20 00:23:34;;;;;;;15.88;5.13;;;;;;;9.99;nan;99422.88;5020842;27;101485;-78
2023/11/20 00:26:00;;;;;;;16.40;4.78;;;;;;;10.02;nan;99425.34;5035456;27;97413;-77
2023/11/20 00:28:26;;;;;;;14.45;4.38;;;;;;;9.88;nan;99406.78;5032927;27;96768;-78
2023/11/20 00:30:51;;;;;;;10.45;4.05;;;;;;;9.94;nan;99412.56;5041399;27;96955;-78
2023/11/20 00:33:17;;;;;;;11.85;3.90;;;;;;;9.83;nan;99427.97;5037285;27;101386;-79
2023/11/20 00:35:42;;;;;;;16.13;4.35;;;;;;;9.87;nan;99432.13;5034715;27;100773;-77
2023/11/20 00:38:08;;;;;;;14.88;4.18;;;;;;;9.85;nan;99431.34;5042380;27;97228;-80
2023/11/20 00:40:33;;;;;;;12.13;4.35;;;;;;;9.90;nan;99439.03;5038274;27;96867;-77
2023/11/20 00:43:00;;;;;;;14.75;4.53;;;;;;;9.97;nan;99433.41;5031366;27;97873;-78
2023/11/20 00:45:26;;;;;;;14.77;4.35;;;;;;;10.07;nan;99444.34;5020780;27;98328;-78
2023/11/20 00:47:51;;;;;;;13.68;4.18;;;;;;;10.12;nan;99438.88;5036951;27;97164;-77
2023/11/20 00:50:17;;;;;;;14.38;4.00;;;;;;;10.15;nan;99441.34;5022916;27;96919;-77
2023/11/20 00:52:42;;;;;;;11.48;4.10;;;;;;;10.06;nan;99421.66;5013685;27;97369;-77
2023/11/20 00:55:11;;;;;;;13.55;4.32;;;;;;;10.09;nan;99434.63;5033431;27;98248;-78
2023/11/20 00:57:37;;;;;;;12.07;3.95;;;;;;;10.18;nan;99441.22;5014420;27;97048;-77
2023/11/20 01:00:08;;;;;;;14.38;3.75;;;;;;;10.18;nan;99441.22;5037499;27;96877;-78
2023/11/20 01:02:34;;;;;;;9.85;3.10;;;;;;;10.09;nan;99432.00;5034734;27;98207;-77
2023/11/20 01:05:00;;;;;;;9.68;3.15;;;;;;;10.11;nan;99438.03;5034781;27;97894;-79
2023/11/20 01:07:27;;;;;;;13.18;3.63;;;;;;;10.13;nan;99422.25;5024674;27;96819;-78
2023/11/20 01:09:52;;;;;;;12.90;3.10;;;;;;;10.13;nan;99415.22;5030987;27;97137;-80
2023/11/20 01:12:18;;;;;;;11.82;4.15;;;;;;;10.25;nan;99432.16;5019511;27;101672;-78
2023/11/20 01:14:44;;;;;;;12.65;3.70;;;;;;;10.12;nan;99431.00;5022154;27;98583;-77
2023/11/20 01:17:10;;;;;;;10.65;3.10;;;;;;;10.23;nan;99433.13;5023873;28;97210;-77
2023/11/20 01:19:35;;;;;;;15.75;3.45;;;;;;;10.18;nan;99435.97;5008284;27;96888;-78
2023/11/20 01:22:01;;;;;;;12.07;3.40;;;;;;;10.15;nan;99433.47;5024560;28;101323;-78
2023/11/20 01:24:26;;;;;;;10.57;3.10;;;;;;;10.11;nan;99427.53;5051158;27;97445;-77
2023/11/20 01:26:53;;;;;;;11.75;4.07;;;;;;;10.02;nan;99425.34;5006157;28;96859;-78
2023/11/20 01:29:20;;;;;;;14.43;3.95;;;;;;;10.17;nan;99424.63;5051797;27;97061;-78
2023/11/20 01:31:46;;;;;;;9.27;2.92;;;;;;;10.15;nan;99429.13;5060613;27;97963;-78
2023/11/20 01:34:11;;;;;;;17.15;3.95;;;;;;;10.19;nan;99435.91;5031112;27;100414;-78
2023/11/20 01:36:37;;;;;;;11.13;2.95;;;;;;;10.14;nan;99414.28;5044696;27;96848;-78
2023/11/20 01:39:03;;;;;;;15.00;3.90;;;;;;;10.10;nan;99406.66;5033343;27;97777;-77
2023/11/20 01:41:29;;;;;;;7.75;3.10;;;;;;;10.25;nan;99431.31;5019629;27;100747;-78
2023/11/20 01:43:55;;;;;;;8.30;3.05;;;;;;;10.22;nan;99426.22;5021476;28;99749;-80
2023/11/20 01:46:21;;;;;;;12.07;3.63;;;;;;;10.17;nan;99432.50;5022772;27;96834;-79
2023/11/20 01:48:46;;;;;;;9.63;3.08;;;;;;;10.22;nan;99424.44;5023859;27;96881;-78
2023/11/20 01:51:12;;;;;;;10.05;3.53;;;;;;;10.27;nan;99414.63;5001043;28;101179;-78
2023/11/20 01:53:40;;;;;;;18.50;3.83;;;;;;;10.29;nan;99423.22;5020461;27;101498;-79
2023/11/20 01:56:08;;;;;;;9.43;2.88;;;;;;;10.21;nan;99420.13;5043358;27;96863;-79
2023/11/20 01:58:34;;;;;;;12.85;2.92;;;;;;;10.24;nan;99416.47;5021502;27;97163;-78
2023/11/20 02:01:00;;;;;;;13.27;4.40;;;;;;;10.15;nan;99416.00;5028648;27;100368;-80
2023/11/20 02:03:26;;;;;;;14.55;4.07;;;;;;;10.16;nan;99407.19;5033989;27;97360;-79
2023/11/20 02:05:51;;;;;;;9.65;3.28;;;;;;;10.21;nan;99407.00;5011172;27;96715;-78
2023/11/20 02:08:18;;;;;;;11.18;3.45;;;;;;;10.17;nan;99410.66;5027112;27;96872;-78
2023/11/20 02:10:43;;;;;;;11.68;4.07;;;;;;;10.11;nan;99408.34;5063912;27;97394;-78
2023/11/20 02:13:09;;;;;;;14.25;4.63;;;;;;;10.17;nan;99408.06;4992485;27;101138;-79
2023/11/20 02:15:35;;;;;;;12.52;3.75;;;;;;;10.16;nan;99408.97;5017337;27;97357;-79
2023/11/20 02:18:00;;;;;;;10.80;2.78;;;;;;;10.07;nan;99398.94;5026729;27;96949;-79
2023/11/20 02:20:26;;;;;;;10.27;3.28;;;;;;;10.10;nan;99406.66;4988129;28;101198;-78
2023/11/20 02:22:51;;;;;;;8.90;3.20;;;;;;;10.16;nan;99401.13;5005136;27;101868;-79
2023/11/20 02:25:17;;;;;;;9.10;2.92;;;;;;;10.10;nan;99385.66;5029668;27;96956;-78
2023/11/20 02:27:58;;;;;;;11.48;3.22;;;;;;;10.21;nan;99404.38;5023513;27;96829;-78
2023/11/20 02:30:24;;;;;;;9.80;3.87;;;;;;;10.19;nan;99404.44;5021673;27;101489;-79
2023/11/20 02:32:50;;;;;;;9.38;4.00;;;;;;;10.02;nan;99375.53;5014002;27;101065;-78
2023/11/20 02:35:19;;;;;;;8.52;3.15;;;;;;;10.17;nan;99398.41;5031609;27;96955;-79
2023/11/20 02:37:46;;;;;;;8.80;3.30;;;;;;;10.17;nan;99387.91;5031792;27;97093;-78
2023/11/20 02:40:12;;;;;;;13.40;4.32;;;;;;;10.13;nan;99394.25;5021226;27;98017;-79
2023/11/20 02:42:38;;;;;;;8.48;3.58;;;;;;;10.23;nan;99389.41;5022025;27;99715;-79
2023/11/20 02:45:04;;;;;;;8.63;3.33;;;;;;;10.19;nan;99374.75;5021064;27;96727;-78
2023/11/20 02:47:29;;;;;;;8.02;3.38;;;;;;;10.30;nan;99388.22;5007639;27;97007;-78
2023/11/20 02:49:55;;;;;;;11.95;3.67;;;;;;;10.19;nan;99365.09;5007219;27;101290;-79
2023/11/20 02:52:20;;;;;;;7.32;3.10;;;;;;;10.30;nan;99384.75;5042164;27;97519;-80
2023/11/20 02:54:46;;;;;;;7.35;3.08;;;;;;;10.31;nan;99389.91;5056634;27;97073;-79
2023/11/20 02:57:12;;;;;;;8.43;3.63;;;;;;;10.19;nan;99359.00;5034889;27;96902;-79
2023/11/20 02:59:38;;;;;;;10.40;4.05;;;;;;;10.30;nan;99374.28;5027201;27;101433;-79
2023/11/20 03:02:03;;;;;;;9.25;3.65;;;;;;;10.39;nan;99384.31;5027878;27;101113;-78
2023/11/20 03:04:29;;;;;;;6.80;2.80;;;;;;;10.35;nan;99378.34;5015629;27;97228;-78
2023/11/20 03:06:54;;;;;;;8.65;3.63;;;;;;;10.28;nan;99366.47;5027047;27;97207;-78
2023/11/20 03:09:20;;;;;;;7.07;3.17;;;;;;;10.38;nan;99385.22;5024648;27;101091;-81
2023/11/20 03:11:46;;;;;;;9.07;3.65;;;;;;;10.37;nan;99381.75;5041900;27;99549;-81
2023/11/20 03:14:12;;;;;;;5.90;3.30;;;;;;;10.36;nan;99381.84;5047492;27;96788;-79
2023/11/20 03:16:38;;;;;;;7.75;3.70;;;;;;;10.32;nan;99386.38;5023345;27;97012;-79
2023/11/20 03:19:05;;;;;;;7.95;3.53;;;;;;;10.32;nan;99380.28;5025260;27;100831;-78
2023/11/20 03:21:33;;;;;;;8.63;4.20;;;;;;;10.33;nan;99379.38;5015168;27;99291;-80
2023/11/20 03:24:03;;;;;;;12.48;6.38;;;;;;;10.29;nan;99373.41;5024594;27;96841;-78
2023/11/20 03:26:29;;;;;;;12.10;6.72;;;;;;;10.23;nan;99367.56;5028520;27;96893;-76
2023/11/20 03:28:54;;;;;;;11.20;5.75;;;;;;;10.31;nan;99373.34;4999226;27;101128;-79
2023/11/20 03:31:20;;;;;;;10.80;5.50;;;;;;;10.26;nan;99373.50;5034991;27;100968;-79
2023/11/20 03:33:46;;;;;;;7.63;4.22;;;;;;;10.28;nan;99379.56;5026495;27;97303;-79
2023/11/20 03:36:15;;;;;;;8.80;5.07;;;;;;;10.25;nan;99368.34;5020509;27;96879;-79
2023/11/20 03:38:41;;;;;;;8.98;4.10;;;;;;;10.19;nan;99367.72;5021975;28;101290;-79
2023/11/20 03:41:08;;;;;;;10.65;3.58;;;;;;;10.18;nan;99360.78;5006216;28;100900;-79
2023/11/20 03:43:34;;;;;;;6.70;3.65;;;;;;;10.23;nan;99360.53;5023619;27;96816;-79
2023/11/20 03:46:00;;;;;;;7.18;3.13;;;;;;;10.16;nan;99359.16;5044114;27;97147;-79
2023/11/20 03:48:25;;;;;;;10.00;3.55;;;;;;;10.22;nan;99363.25;5023897;27;100763;-78
2023/11/20 03:50:51;;;;;;;6.70;3.22;;;;;;;10.20;nan;99347.59;5020489;27;100910;-79
2023/11/20 03:53:16;;;;;;;7.65;3.83;;;;;;;10.20;nan;99361.53;5015870;28;96804;-83
2023/11/20 03:55:43;;;;;;;6.93;3.33;;;;;;;10.08;nan;99345.56;5041611;27;97230;-79
2023/11/20 03:58:08;;;;;;;8.45;3.40;;;;;;;10.25;nan;99358.72;5017697;27;99079;-79
2023/11/20 04:00:35;;;;;;;6.20;3.47;;;;;;;10.25;nan;99348.22;5036111;27;97268;-79
2023/11/20 04:03:00;;;;;;;6.80;3.58;;;;;;;10.08;nan;99330.66;5035838;27;96819;-79
2023/11/20 04:05:26;;;;;;;6.22;3.70;;;;;;;10.21;nan;99341.44;5042047;27;97046;-79
2023/11/20 04:07:52;;;;;;;6.20;3.47;;;;;;;10.28;nan;99347.25;5041515;27;97636;-79
2023/11/20 04:10:17;;;;;;;6.05;3.90;;;;;;;10.26;nan;99344.66;5020857;27;100771;-77
2023/11/20 04:12:46;;;;;;;11.23;3.83;;;;;;;10.23;nan;99343.97;5019897;27;96892;-76
2023/11/20 04:15:12;;;;;;;6.85;3.70;;;;;;;10.23;nan;99342.19;5019741;27;97014;-79
2023/11/20 04:17:38;;;;;;;6.03;3.70;;;;;;;10.15;nan;99337.34;5045160;27;98051;-77
2023/11/20 04:20:05;;;;;;;9.48;3.53;;;;;;;10.31;nan;99334.84;5023158;27;97980;-77
2023/11/20 04:22:31;;;;;;;6.90;3.50;;;;;;;10.36;nan;99327.59;5019129;27;97982;-77
2023/11/20 04:24:57;;;;;;;9.68;3.80;;;;;;;10.31;nan;99331.38;5032042;27;97566;-77
2023/11/20 04:27:23;;;;;;;7.35;3.90;;;;;;;10.30;nan;99320.03;5034812;27;101026;-77
2023/11/20 04:29:48;;;;;;;8.27;4.18;;;;;;;10.15;nan;99321.59;5032486;27;97450;-79
2023/11/20 04:32:14;;;;;;;7.97;4.05;;;;;;;10.22;nan;99313.44;5023384;27;96945;-81
2023/11/20 04:34:39;;;;;;;6.38;4.22;;;;;;;10.27;nan;99333.31;5017632;27;96831;-77
2023/11/20 04:37:05;;;;;;;8.27;3.55;;;;;;;10.15;nan;99318.97;5028696;27;101593;-77
2023/11/20 04:39:30;;;;;;;8.30;4.53;;;;;;;10.26;nan;99334.16;5010509;27;100577;-76
2023/11/20 04:41:56;;;;;;;8.00;4.10;;;;;;;10.33;nan;99327.75;5019026;27;96889;-76
2023/11/20 04:44:21;;;;;;;7.65;4.30;;;;;;;10.29;nan;99335.84;5018800;27;97185;-77
2023/11/20 04:46:47;;;;;;;8.60;4.47;;;;;;;10.24;nan;99330.78;5038390;27;97755;-78
2023/11/20 04:49:12;;;;;;;6.18;3.90;;;;;;;10.30;nan;99321.81;5023635;27;97884;-77
2023/11/20 04:51:38;;;;;;;8.10;3.95;;;;;;;10.29;nan;99320.94;5031093;27;97477;-77
2023/11/20 04:54:04;;;;;;;7.80;3.95;;;;;;;10.36;nan;99327.59;5040457;27;96781;-76
2023/11/20 04:56:31;;;;;;;9.07;3.85;;;;;;;10.18;nan;99289.09;5043574;27;97456;-76
2023/11/20 04:58:56;;;;;;;9.93;4.85;;;;;;;10.37;nan;99315.31;5019196;28;97352;-76
2023/11/20 05:01:22;;;;;;;12.68;4.53;;;;;;;10.31;nan;99332.22;5051411;27;97359;-76
2023/11/20 05:03:48;;;;;;;10.65;4.50;;;;;;;10.28;nan;99319.25;5030732;27;97042;-77
2023/11/20 05:06:13;;;;;;;7.55;4.35;;;;;;;10.36;nan;99324.97;5043657;27;97958;-76
2023/11/20 05:08:39;;;;;;;8.23;4.07;;;;;;;10.32;nan;99333.06;5034935;27;97383;-77
2023/11/20 05:11:04;;;;;;;8.98;4.90;;;;;;;10.24;nan;99301.06;5028844;27;97140;-76
2023/11/20 05:13:30;;;;;;;8.82;4.72;;;;;;;10.29;nan;99297.34;5047345;27;97134;-76
2023/11/20 05:15:55;;;;;;;9.38;4.82;;;;;;;10.33;nan;99319.88;5018007;28;100251;-77
2023/11/20 05:18:22;;;;;;;7.47;4.50;;;;;;;10.27;nan;99307.06;5045705;27;97253;-77
2023/11/20 05:20:48;;;;;;;9.75;4.20;;;;;;;10.39;nan;99316.97;5023904;27;96731;-77
2023/11/20 05:23:13;;;;;;;8.65;4.38;;;;;;;10.19;nan;99294.28;5044805;27;96967;-76
2023/11/20 05:25:39;;;;;;;8.98;4.15;;;;;;;10.27;nan;99309.69;5040026;27;97716;-78
2023/11/20 05:28:04;;;;;;;9.57;4.07;;;;;;;10.27;nan;99321.94;5029916;27;101441;-76
2023/11/20 05:30:30;;;;;;;7.88;4.07;;;;;;;10.24;nan;99312.44;5006890;27;97338;-76
2023/11/20 05:32:56;;;;;;;6.45;3.95;;;;;;;10.36;nan;99314.47;5047709;27;97313;-76
2023/11/20 05:35:22;;;;;;;7.05;4.28;;;;;;;10.35;nan;99298.81;5025823;27;97888;-76
2023/11/20 05:37:48;;;;;;;12.75;5.70;;;;;;;10.37;nan;99312.69;5018534;28;100884;-78
2023/11/20 05:40:13;;;;;;;8.50;4.60;;;;;;;10.35;nan;99310.13;5017870;27;97327;-77
2023/11/20 05:42:40;;;;;;;10.27;5.53;;;;;;;10.35;nan;99294.41;5027425;27;96953;-78
2023/11/20 05:45:06;;;;;;;6.68;4.50;;;;;;;10.42;nan;99305.47;5058624;27;97680;-77
2023/11/20 05:47:32;;;;;;;8.32;4.63;;;;;;;10.36;nan;99304.00;5023832;27;97389;-79
2023/11/20 05:49:57;;;;;;;6.78;4.18;;;;;;;10.39;nan;99303.00;5025141;27;97491;-81
2023/11/20 05:52:23;;;;;;;5.65;3.70;;;;;;;10.40;nan;99302.91;5025496;27;97112;-80
2023/11/20 05:54:48;;;;;;;9.23;4.10;;;;;;;10.38;nan;99302.16;5012783;27;101624;-81
2023/11/20 05:57:14;;;;;;;7.35;3.80;;;;;;;10.42;nan;99303.69;5012118;27;100974;-81
2023/11/20 05:59:39;;;;;;;7.78;4.43;;;;;;;10.47;nan;99310.47;5005483;27;97352;-77
2023/11/20 06:02:05;;;;;;;7.32;3.83;;;;;;;10.42;nan;99308.94;5038583;27;97339;-78
2023/11/20 06:04:31;;;;;;;6.30;3.55;;;;;;;10.29;nan;99306.97;5015140;27;101204;-86
2023/11/20 06:06:56;;;;;;;9.05;4.32;;;;;;;10.43;nan;99318.50;5020358;27;100538;-79
2023/11/20 06:09:22;;;;;;;4.68;3.15;;;;;;;10.29;nan;99318.31;5025561;27;96869;-86
2023/11/20 06:11:50;;;;;;;10.05;3.03;;;;;;;10.18;nan;99300.47;5035549;27;97111;-77
2023/11/20 06:14:16;;;;;;;5.78;3.40;;;;;;;10.24;nan;99299.31;5012619;27;97223;-77
2023/11/20 06:16:41;;;;;;;5.18;2.97;;;;;;;10.30;nan;99322.66;5015045;27;101090;-91
2023/11/20 06:19:07;;;;;;;7.93;3.67;;;;;;;10.37;nan;99323.19;5028810;27;96781;-93
2023/11/20 06:21:33;;;;;;;6.50;3.47;;;;;;;10.33;nan;99335.63;5031364;27;98603;-91
2023/11/20 06:24:00;;;;;;;10.75;4.10;;;;;;;10.22;nan;99316.91;5014046;28;101434;-92
2023/11/20 06:26:26;;;;;;;8.25;3.72;;;;;;;10.24;nan;99304.56;5038273;27;98433;-91
2023/11/20 06:28:52;;;;;;;4.68;3.45;;;;;;;10.28;nan;99323.66;5018960;27;96814;-92
2023/11/20 06:31:17;;;;;;;7.90;3.47;;;;;;;10.34;nan;99312.84;5034557;27;96801;-91
2023/11/20 06:33:43;;;;;;;6.32;3.67;;;;;;;10.22;nan;99309.03;5005925;27;101494;-91
2023/11/20 06:36:10;;;;;;;5.72;3.63;;;;;;;10.27;nan;99317.56;5008791;27;101476;-91
2023/11/20 06:38:36;;;;;;;6.47;3.42;;;;;;;10.71;nan;99324.16;5017913;27;96785;-90
2023/11/20 06:41:04;;;;;;;5.30;3.40;;;;;;;10.70;nan;99330.31;4995110;27;97321;-90
2023/11/20 06:43:30;;;;;;;7.55;3.55;;;;;;;10.63;nan;99328.00;5018030;27;98604;-89
2023/11/20 06:45:56;;;;;;;5.57;3.78;;;;;;;10.67;nan;99339.19;5025620;27;99514;-90
2023/11/20 06:48:21;;;;;;;7.82;3.90;;;;;;;10.48;nan;99326.16;5016661;27;96670;-90
2023/11/20 06:50:47;;;;;;;8.27;4.07;;;;;;;10.55;nan;99342.44;5024059;27;96835;-89
2023/11/20 06:53:13;;;;;;;6.60;3.25;;;;;;;10.50;nan;99347.91;4994651;28;100714;-90
2023/11/20 06:55:39;;;;;;;5.45;3.55;;;;;;;10.40;nan;99330.91;5018015;27;98463;-91
2023/11/20 06:58:04;;;;;;;6.93;3.90;;;;;;;10.40;nan;99326.50;4995772;27;97083;-90
2023/11/20 07:00:30;;;;;;;6.60;3.50;;;;;;;10.36;nan;99345.13;5012655;27;97575;-90
2023/11/20 07:02:55;;;;;;;8.68;3.53;;;;;;;10.28;nan;99342.84;5028502;27;98153;-91
2023/11/20 07:05:21;;;;;;;6.85;3.30;;;;;;;10.28;nan;99334.13;5048251;27;98409;-89
2023/11/20 07:07:53;;;;;;;5.22;3.35;;;;;;;10.30;nan;99327.91;4999389;27;98691;-87
2023/11/20 07:10:25;;;;;;;6.50;3.65;;;;;;;10.43;nan;99336.00;5015372;28;96989;-91
2023/11/20 07:12:55;;;;;;;10.27;4.03;;;;;;;10.55;nan;99345.06;5002922;27;97310;-91
2023/11/20 07:15:21;;;;;;;6.70;4.15;;;;;;;10.60;nan;99351.78;5010885;28;100077;-92
2023/11/20 07:17:47;;;;;;;7.45;3.47;;;;;;;10.63;nan;99348.16;5004327;27;96760;-95
2023/11/20 07:20:13;;;;;;;10.52;4.65;;;;;;;10.58;nan;99345.75;5039861;27;96841;-87
2023/11/20 07:22:39;;;;;;;7.78;4.10;;;;;;;10.60;nan;99350.94;5027608;27;100476;-89
2023/11/20 07:25:05;;;;;;;6.25;3.90;;;;;;;10.53;nan;99334.66;5023008;27;100623;-94
2023/11/20 07:27:33;;;;;;;6.63;3.95;;;;;;;10.60;nan;99345.69;4994420;27;97467;-91
2023/11/20 07:29:58;;;;;;;6.03;3.85;;;;;;;10.44;nan;99327.19;5032384;27;96990;-77
2023/11/20 07:32:24;;;;;;;6.18;3.72;;;;;;;10.45;nan;99334.16;5018151;27;97645;-75
2023/11/20 07:34:49;;;;;;;6.00;3.83;;;;;;;10.56;nan;99357.25;5020307;27;101280;-77
2023/11/20 07:37:16;;;;;;;6.80;3.72;;;;;;;10.43;nan;99342.09;5018163;27;96982;-74
2023/11/20 07:39:42;;;;;;;8.45;3.97;;;;;;;10.51;nan;99359.25;5039839;27;96856;-77
2023/11/20 07:42:09;;;;;;;7.25;4.13;;;;;;;10.38;nan;99331.00;5022540;27;101351;-76
2023/11/20 07:44:35;;;;;;;6.45;3.78;;;;;;;10.44;nan;99350.81;5015447;27;99883;-76
2023/11/20 07:47:00;;;;;;;7.03;3.45;;;;;;;10.41;nan;99357.09;5041327;27;96806;-76
2023/11/20 07:49:31;;;;;;;6.95;3.80;;;;;;;10.29;nan;99339.28;5042661;27;97081;-78
2023/11/20 07:51:57;;;;;;;7.05;3.50;;;;;;;10.16;nan;99322.44;5041452;27;97491;-77
2023/11/20 07:54:22;;;;;;;6.18;3.67;;;;;;;10.29;nan;99339.28;5037555;27;97594;-76
2023/11/20 07:56:48;;;;;;;5.97;3.80;;;;;;;10.33;nan;99337.41;5036764;27;96859;-78
2023/11/20 07:59:14;;;;;;;9.07;4.45;;;;;;;10.29;nan;99344.53;5025259;27;97912;-78
2023/11/20 08:01:39;;;;;;;4.50;2.80;;;;;;;10.27;nan;99346.41;5017152;27;97488;-79
2023/11/20 08:04:05;;;;;;;9.13;3.92;;;;;;;10.25;nan;99352.63;5041040;27;97344;-78
2023/11/20 08:06:33;;;;;;;4.72;3.28;;;;;;;10.26;nan;99346.44;5038073;27;97042;-77
2023/11/20 08:08:59;;;;;;;8.52;3.13;;;;;;;10.26;nan;99338.56;5007513;28;96906;-79
2023/11/20 08:11:25;;;;;;;5.28;3.25;;;;;;;10.39;nan;99347.59;5015623;27;97663;-80
2023/11/20 08:13:51;;;;;;;5.03;2.75;;;;;;;10.42;nan;99350.91;4996807;27;97871;-77
2023/11/20 08:16:20;;;;;;;5.35;2.92;;;;;;;10.34;nan;99323.34;5024031;27;96881;-77
2023/11/20 08:18:45;;;;;;;6.57;3.15;;;;;;;10.20;nan;99323.97;5009414;27;96917;-76
2023/11/20 08:21:14;;;;;;;8.85;3.60;;;;;;;10.26;nan;99335.94;5029637;27;99314;-77
2023/11/20 08:23:40;;;;;;;7.53;3.30;;;;;;;10.23;nan;99343.97;5012430;27;98180;-77
2023/11/20 08:26:06;;;;;;;7.97;3.58;;;;;;;10.36;nan;99343.34;5012759;27;97869;-79
2023/11/20 08:28:31;;;;;;;6.80;3.55;;;;;;;10.38;nan;99335.38;5033359;27;97087;-77
2023/11/20 08:30:57;;;;;;;7.10;3.42;;;;;;;10.49;nan;99351.44;4998932;27;100646;-78
2023/11/20 08:33:22;;;;;;;8.30;3.72;;;;;;;10.27;nan;99327.19;5034940;27;101348;-78
2023/11/20 08:35:48;;;;;;;7.43;3.88;;;;;;;10.31;nan;99352.34;5036656;27;98029;-77
2023/11/20 08:38:13;;;;;;;8.65;3.67;;;;;;;10.33;nan;99338.25;5028438;27;96922;-77
2023/11/20 08:40:41;;;;;;;9.32;4.43;;;;;;;10.36;nan;99345.13;5010935;27;100961;-77
2023/11/20 08:43:08;;;;;;;13.68;4.05;;;;;;;10.41;nan;99348.34;5037983;27;97881;-87
2023/11/20 08:45:34;;;;;;;8.57;4.00;;;;;;;10.42;nan;99336.94;5035964;27;96868;-88
2023/11/20 08:47:59;;;;;;;8.02;4.47;;;;;;;10.56;nan;99344.13;5032487;27;97468;-86
2023/11/20 08:50:25;;;;;;;7.20;4.15;;;;;;;10.46;nan;99330.59;5043195;27;97643;-87
2023/11/20 08:52:54;;;;;;;8.65;4.47;;;;;;;10.58;nan;99358.88;5049181;27;97997;-87
2023/11/20 08:55:20;;;;;;;8.52;3.90;;;;;;;10.52;nan;99361.78;5027552;27;96862;-87
2023/11/20 08:57:46;;;;;;;7.47;3.53;;;;;;;10.45;nan;99343.81;5034106;27;97056;-87
2023/11/20 09:00:14;;;;;;;5.82;3.20;;;;;;;10.44;nan;99363.94;5020221;27;101619;-87
2023/11/20 09:02:44;;;;;;;6.80;3.47;;;;;;;10.36;nan;99347.75;5027720;27;100392;-86
2023/11/20 09:05:12;;;;;;;5.20;2.97;;;;;;;10.39;nan;99353.69;5006785;27;97310;-87
2023/11/20 09:07:37;;;;;;;7.60;3.45;;;;;;;10.44;nan;99348.19;5011691;27;97949;-87
2023/11/20 09:10:06;;;;;;;6.40;2.85;;;;;;;10.45;nan;99343.81;5018784;27;101411;-86
2023/11/20 09:12:33;;;;;;;5.32;2.58;;;;;;;10.32;nan;99335.69;5020331;27;98530;-85
2023/11/20 09:14:59;;;;;;;4.78;2.50;;;;;;;10.23;nan;99307.25;5044123;27;96787;-77
2023/11/20 09:17:25;;;;;;;4.22;2.25;;;;;;;10.41;nan;99333.47;5029460;27;97212;-89
2023/11/20 09:19:51;;;;;;;3.22;2.03;;;;;;;10.49;nan;99327.00;5002561;27;100383;-90
2023/11/20 09:22:18;;;;;;;3.70;2.35;;;;;;;10.44;nan;99308.84;5018022;27;97924;-89
2023/11/20 09:24:50;;;;;;;3.25;2.22;;;;;;;10.34;nan;99302.38;5033708;27;96900;-92
2023/11/20 09:27:18;;;;;;;3.05;2.00;;;;;;;10.30;nan;99309.53;5013471;27;97132;-90
2023/11/20 09:29:45;;;;;;;4.95;2.30;;;;;;;10.39;nan;99306.47;5012777;27;99412;-90
2023/11/20 09:32:10;;;;;;;5.20;2.22;;;;;;;10.50;nan;99299.81;5019829;27;97152;-90
2023/11/20 09:34:37;;;;;;;3.53;2.13;;;;;;;10.53;nan;99291.78;5025788;27;96858;-91
2023/11/20 09:37:03;;;;;;;4.28;2.75;;;;;;;10.75;nan;99330.94;5028577;27;96879;-90
2023/11/20 09:39:29;;;;;;;5.65;2.78;;;;;;;10.54;nan;99299.59;5016791;28;101023;-90
2023/11/20 09:41:55;;;;;;;6.00;3.25;;;;;;;10.39;nan;99285.47;5018109;27;100247;-90
2023/11/20 09:44:25;;;;;;;8.48;3.55;;;;;;;10.49;nan;99296.34;5010670;28;96825;-90
2023/11/20 09:46:52;;;;;;;7.30;3.83;;;;;;;10.48;nan;99306.94;5005253;27;96793;-90
2023/11/20 09:49:29;;;;;;;6.20;3.65;;;;;;;10.50;nan;99295.44;5028402;27;98062;-90
2023/11/20 09:51:56;;;;;;;4.80;3.08;;;;;;;10.34;nan;99268.25;5047200;27;98431;-90
2023/11/20 09:54:24;;;;;;;6.70;3.63;;;;;;;10.53;nan;99302.28;5016167;27;96827;-90
2023/11/20 09:56:50;;;;;;;5.05;3.15;;;;;;;10.43;nan;99271.25;5004327;27;97258;-90
2023/11/20 09:59:16;;;;;;;8.05;3.30;;;;;;;10.50;nan;99297.19;5017868;27;101006;-90
2023/11/20 10:01:43;;;;;;;7.45;3.58;;;;;;;10.41;nan;99272.25;5020161;27;98493;-90
2023/11/20 10:04:09;;;;;;;6.72;3.30;;;;;;;10.51;nan;99281.38;5017102;28;96749;-90
2023/11/20 10:06:35;;;;;;;8.45;3.25;;;;;;;10.61;nan;99294.88;5036439;27;96891;-90
2023/11/20 10:09:02;;;;;;;6.75;2.90;;;;;;;10.58;nan;99274.03;5056243;27;98696;-90
2023/11/20 10:11:31;;;;;;;11.68;2.97;;;;;;;10.68;nan;99290.19;5004158;27;100201;-89
2023/11/20 10:13:57;;;;;;;8.50;3.10;;;;;;;10.71;nan;99288.25;5013818;28;97232;-91
2023/11/20 10:16:23;;;;;;;4.40;2.78;;;;;;;10.65;nan;99283.31;5007043;27;96831;-91
2023/11/20 10:18:49;;;;;;;6.47;3.15;;;;;;;10.63;nan;99278.13;4997528;28;101017;-91
2023/11/20 10:21:18;;;;;;;4.95;2.80;;;;;;;10.54;nan;99254.16;5021282;27;101229;-91
2023/11/20 10:23:43;;;;;;;6.60;3.63;;;;;;;10.53;nan;99241.94;4995593;28;97161;-91
2023/11/20 10:26:10;;;;;;;6.82;3.53;;;;;;;10.73;nan;99264.53;5041020;27;96753;-91
2023/11/20 10:28:40;;;;;;;5.05;3.25;;;;;;;10.75;nan;99273.19;5023518;28;98166;-91
2023/11/20 10:31:06;;;;;;;8.50;4.07;;;;;;;10.59;nan;99245.13;5038487;27;98309;-91
2023/11/20 10:33:31;;;;;;;6.18;3.08;;;;;;;10.67;nan;99265.69;5048879;27;96821;-90
2023/11/20 10:36:10;;;;;;;5.72;3.13;;;;;;;10.50;nan;99242.97;5025458;27;96911;-91
2023/11/20 10:38:36;;;;;;;8.55;3.83;;;;;;;10.47;nan;99235.25;5038793;27;97483;-91
2023/11/20 10:41:03;;;;;;;5.25;3.22;;;;;;;10.52;nan;99250.75;5014339;28;99583;-91
2023/11/20 10:43:30;;;;;;;7.63;3.63;;;;;;;10.33;nan;99228.06;5029019;27;96802;-90
2023/11/20 10:45:56;;;;;;;6.95;3.65;;;;;;;10.53;nan;99250.69;5014569;28;96966;-90
2023/11/20 10:48:22;;;;;;;7.40;4.00;;;;;;;10.59;nan;99252.16;5012598;27;101661;-90
2023/11/20 10:50:49;;;;;;;4.93;3.25;;;;;;;10.70;nan;99255.03;5001266;28;101701;-90
2023/11/20 10:53:17;;;;;;;11.43;3.92;;;;;;;10.74;nan;99248.72;5007027;28;97208;-92
2023/11/20 10:55:50;;;;;;;9.73;3.72;;;;;;;10.59;nan;99203.13;5037254;27;97106;-91
2023/11/20 10:58:16;;;;;;;7.00;3.25;;;;;;;10.65;nan;99220.34;5003817;27;97998;-90
2023/11/20 11:00:42;;;;;;;5.85;3.60;;;;;;;10.54;nan;99223.50;5025822;27;100191;-90
2023/11/20 11:03:09;;;;;;;6.05;3.08;;;;;;;10.71;nan;99245.41;5037239;27;96734;-89
2023/11/20 11:05:38;;;;;;;6.20;3.90;;;;;;;10.78;nan;99238.91;5021430;27;97005;-90
2023/11/20 11:08:06;;;;;;;6.80;3.78;;;;;;;10.79;nan;99230.09;5012090;27;101725;-90
2023/11/20 11:10:36;;;;;;;8.05;3.47;;;;;;;10.88;nan;99242.75;5018588;27;100667;-91
2023/11/20 11:13:03;;;;;;;6.35;3.47;;;;;;;10.81;nan;99223.84;5015637;27;96814;-91
2023/11/20 11:15:31;;;;;;;6.78;2.35;;;;;;;10.83;nan;99235.13;5025384;28;96759;-90
2023/11/20 11:18:06;;;;;;;7.72;2.47;;;;;;;10.94;nan;99237.19;5019318;27;99643;-89
2023/11/20 11:20:53;;;;;;;7.18;2.63;;;;;;;11.00;nan;99212.38;5024630;28;98275;-90
2023/11/20 11:23:40;;;;;;;4.13;1.90;;;;;;;10.88;nan;99212.09;5032809;27;96821;-90
2023/11/20 11:26:14;;;;;;;3.83;2.28;;;;;;;10.98;nan;99222.13;5022024;27;97534;-90
2023/11/20 11:28:45;;;;;;;4.65;2.53;;;;;;;11.07;nan;99225.09;5035298;27;101792;-89
2023/11/20 11:31:12;;;;;;;4.63;2.83;;;;;;;11.19;nan;99225.38;4999480;27;101217;-88
2023/11/20 11:34:06;;;;;;;5.32;2.58;;;;;;;11.07;nan;99192.72;5041186;27;96710;-90
2023/11/20 11:37:01;;;;;;;4.20;2.60;;;;;;;11.18;nan;99203.50;5016059;27;96855;-90
2023/11/20 11:39:30;;;;;;;4.78;2.83;;;;;;;11.18;nan;99195.63;5027916;27;98115;-91
2023/11/20 11:42:05;;;;;;;4.80;2.83;;;;;;;11.28;nan;99194.19;5000202;27;100655;-90
2023/11/20 11:44:37;;;;;;;4.47;2.50;;;;;;;11.41;nan;99197.00;5004058;28;96778;-90